Mingo, Iowa
Current Conditions -  °F | °C
As of 10:35 PM on Saturday 25 Oct 2014 (Local Time) from KTNU Reporting Station
Clear Clear  
Wind Chill: 55°   Ceiling: Unl
Heat Index: 55°   Visibility: 10mi
Dew Point: 36°   Wind: 8mph
Humidity: 47%   Direction: 360°N
Pressure: 30.07"   Gusts: NA
Location:  41.77°N, 93.28°W
Report Text: KTNU 260335Z AUTO 36007KT 10SM CLR 13/02 A3007 RMK AO2
Loading
Personal Weather Stations






























Interactive Weather Map
Tropical Storm Tracking
New forecast layout! Learn more

10-Day Weather Forecast

Advertisements
Track Severe Weather on mobile